sensor_id;sensor_type;location;lat;lon;timestamp;temperature;humidity
20366;DHT22;10341;49.894;8.822;2023-07-29T00:00:52;17.30;99.90
20366;DHT22;10341;49.894;8.822;2023-07-29T00:06:12;17.30;99.90
20366;DHT22;10341;49.894;8.822;2023-07-29T00:11:31;17.20;99.90
20366;DHT22;10341;49.894;8.822;2023-07-29T00:16:52;17.20;99.90
20366;DHT22;10341;49.894;8.822;2023-07-29T00:22:12;17.30;99.90
20366;DHT22;10341;49.894;8.822;2023-07-29T00:27:31;17.30;99.90
20366;DHT22;10341;49.894;8.822;2023-07-29T00:32:51;17.40;99.90
20366;DHT22;10341;49.894;8.822;2023-07-29T00:38:10;17.50;99.90
20366;DHT22;10341;49.894;8.822;2023-07-29T00:43:29;17.50;99.90
20366;DHT22;10341;49.894;8.822;2023-07-29T00:48:48;17.60;99.90
20366;DHT22;10341;49.894;8.822;2023-07-29T00:54:08;17.70;99.90
20366;DHT22;10341;49.894;8.822;2023-07-29T00:59:27;17.70;99.90
20366;DHT22;10341;49.894;8.822;2023-07-29T01:04:53;17.70;99.90
20366;DHT22;10341;49.894;8.822;2023-07-29T01:15:53;17.70;99.90
20366;DHT22;10341;49.894;8.822;2023-07-29T01:21:14;17.60;99.90
20366;DHT22;10341;49.894;8.822;2023-07-29T01:26:34;17.60;99.90
20366;DHT22;10341;49.894;8.822;2023-07-29T01:32:01;17.70;99.90
20366;DHT22;10341;49.894;8.822;2023-07-29T01:37:26;17.60;99.90
20366;DHT22;10341;49.894;8.822;2023-07-29T01:42:47;17.50;99.90
20366;DHT22;10341;49.894;8.822;2023-07-29T01:48:07;17.60;99.90
20366;DHT22;10341;49.894;8.822;2023-07-29T01:53:26;17.60;99.90
20366;DHT22;10341;49.894;8.822;2023-07-29T01:58:46;17.70;99.90
20366;DHT22;10341;49.894;8.822;2023-07-29T02:04:05;17.70;99.90
20366;DHT22;10341;49.894;8.822;2023-07-29T02:09:25;17.60;99.90
20366;DHT22;10341;49.894;8.822;2023-07-29T02:14:45;17.60;99.90
20366;DHT22;10341;49.894;8.822;2023-07-29T02:20:04;17.60;99.90
20366;DHT22;10341;49.894;8.822;2023-07-29T02:25:24;17.60;99.90
20366;DHT22;10341;49.894;8.822;2023-07-29T02:30:44;17.70;99.90
20366;DHT22;10341;49.894;8.822;2023-07-29T02:36:04;17.70;99.90
20366;DHT22;10341;49.894;8.822;2023-07-29T02:41:24;17.70;99.90
20366;DHT22;10341;49.894;8.822;2023-07-29T02:46:43;17.70;99.90
20366;DHT22;10341;49.894;8.822;2023-07-29T02:52:03;17.80;99.90
20366;DHT22;10341;49.894;8.822;2023-07-29T02:57:22;17.80;99.90
20366;DHT22;10341;49.894;8.822;2023-07-29T03:02:41;17.90;99.90
20366;DHT22;10341;49.894;8.822;2023-07-29T03:08:01;17.90;99.90
20366;DHT22;10341;49.894;8.822;2023-07-29T03:13:20;17.90;99.90
20366;DHT22;10341;49.894;8.822;2023-07-29T03:18:41;18.00;99.90
20366;DHT22;10341;49.894;8.822;2023-07-29T03:24:00;18.10;99.90
20366;DHT22;10341;49.894;8.822;2023-07-29T03:29:20;18.20;99.90
20366;DHT22;10341;49.894;8.822;2023-07-29T03:34:39;18.20;99.90
20366;DHT22;10341;49.894;8.822;2023-07-29T03:39:59;18.20;99.90
20366;DHT22;10341;49.894;8.822;2023-07-29T03:45:18;18.10;99.90
20366;DHT22;10341;49.894;8.822;2023-07-29T03:50:38;18.10;99.90
20366;DHT22;10341;49.894;8.822;2023-07-29T03:55:58;18.10;99.90
20366;DHT22;10341;49.894;8.822;2023-07-29T04:01:18;18.00;99.90
20366;DHT22;10341;49.894;8.822;2023-07-29T04:06:38;18.00;99.90
20366;DHT22;10341;49.894;8.822;2023-07-29T04:11:57;18.00;99.90
20366;DHT22;10341;49.894;8.822;2023-07-29T04:17:16;17.90;99.90
20366;DHT22;10341;49.894;8.822;2023-07-29T04:22:36;17.90;99.90
20366;DHT22;10341;49.894;8.822;2023-07-29T04:27:56;18.00;99.90
20366;DHT22;10341;49.894;8.822;2023-07-29T04:33:16;18.10;99.90
20366;DHT22;10341;49.894;8.822;2023-07-29T04:38:37;18.20;99.90
20366;DHT22;10341;49.894;8.822;2023-07-29T04:43:58;18.30;99.90
20366;DHT22;10341;49.894;8.822;2023-07-29T04:49:18;18.40;99.90
20366;DHT22;10341;49.894;8.822;2023-07-29T04:54:37;18.40;99.90
20366;DHT22;10341;49.894;8.822;2023-07-29T04:59:56;18.50;99.90
20366;DHT22;10341;49.894;8.822;2023-07-29T05:05:16;18.60;99.90
20366;DHT22;10341;49.894;8.822;2023-07-29T05:10:36;18.70;99.90
20366;DHT22;10341;49.894;8.822;2023-07-29T05:15:55;18.80;99.90
20366;DHT22;10341;49.894;8.822;2023-07-29T05:21:15;19.00;99.90
20366;DHT22;10341;49.894;8.822;2023-07-29T05:26:35;19.20;99.90
20366;DHT22;10341;49.894;8.822;2023-07-29T05:31:54;19.30;99.90
20366;DHT22;10341;49.894;8.822;2023-07-29T05:37:14;19.50;99.90
20366;DHT22;10341;49.894;8.822;2023-07-29T05:42:33;19.70;99.90
20366;DHT22;10341;49.894;8.822;2023-07-29T05:47:53;20.00;99.90
20366;DHT22;10341;49.894;8.822;2023-07-29T05:53:14;20.10;99.90
20366;DHT22;10341;49.894;8.822;2023-07-29T05:58:33;20.10;99.90
20366;DHT22;10341;49.894;8.822;2023-07-29T06:03:53;20.20;99.90
20366;DHT22;10341;49.894;8.822;2023-07-29T06:09:12;20.40;99.90
20366;DHT22;10341;49.894;8.822;2023-07-29T06:14:32;20.60;99.90
20366;DHT22;10341;49.894;8.822;2023-07-29T06:19:51;20.60;99.90
20366;DHT22;10341;49.894;8.822;2023-07-29T06:25:11;20.60;99.90
20366;DHT22;10341;49.894;8.822;2023-07-29T06:30:31;20.50;99.90
20366;DHT22;10341;49.894;8.822;2023-07-29T06:35:51;20.40;99.90
20366;DHT22;10341;49.894;8.822;2023-07-29T06:41:10;20.40;99.90
20366;DHT22;10341;49.894;8.822;2023-07-29T06:46:30;20.40;99.90
20366;DHT22;10341;49.894;8.822;2023-07-29T06:51:49;20.40;99.90
20366;DHT22;10341;49.894;8.822;2023-07-29T06:57:09;20.30;99.90
20366;DHT22;10341;49.894;8.822;2023-07-29T07:02:28;20.00;99.90
20366;DHT22;10341;49.894;8.822;2023-07-29T07:07:48;19.80;99.90
20366;DHT22;10341;49.894;8.822;2023-07-29T07:13:07;19.80;99.90
20366;DHT22;10341;49.894;8.822;2023-07-29T07:18:27;19.70;99.90
20366;DHT22;10341;49.894;8.822;2023-07-29T07:23:46;19.50;99.90
20366;DHT22;10341;49.894;8.822;2023-07-29T07:29:05;19.50;99.90
20366;DHT22;10341;49.894;8.822;2023-07-29T07:34:25;19.50;99.90
20366;DHT22;10341;49.894;8.822;2023-07-29T07:39:44;19.40;99.90
20366;DHT22;10341;49.894;8.822;2023-07-29T07:45:04;19.40;99.90
20366;DHT22;10341;49.894;8.822;2023-07-29T07:50:24;19.40;99.90
20366;DHT22;10341;49.894;8.822;2023-07-29T07:55:43;19.40;99.90
20366;DHT22;10341;49.894;8.822;2023-07-29T08:01:04;19.40;99.90
20366;DHT22;10341;49.894;8.822;2023-07-29T08:06:23;19.30;99.90
20366;DHT22;10341;49.894;8.822;2023-07-29T08:11:42;19.30;99.90
20366;DHT22;10341;49.894;8.822;2023-07-29T08:17:02;19.20;99.90
20366;DHT22;10341;49.894;8.822;2023-07-29T08:22:22;19.10;99.90
20366;DHT22;10341;49.894;8.822;2023-07-29T08:27:41;19.10;99.90
20366;DHT22;10341;49.894;8.822;2023-07-29T08:33:00;19.20;99.90
20366;DHT22;10341;49.894;8.822;2023-07-29T08:38:20;19.50;99.90
20366;DHT22;10341;49.894;8.822;2023-07-29T08:43:44;20.00;99.90
20366;DHT22;10341;49.894;8.822;2023-07-29T08:49:08;20.70;99.90
20366;DHT22;10341;49.894;8.822;2023-07-29T08:54:27;21.90;99.90
20366;DHT22;10341;49.894;8.822;2023-07-29T08:59:47;22.00;99.90
20366;DHT22;10341;49.894;8.822;2023-07-29T09:05:07;22.70;99.90
20366;DHT22;10341;49.894;8.822;2023-07-29T09:10:27;24.20;99.90
20366;DHT22;10341;49.894;8.822;2023-07-29T09:15:46;24.50;99.90
20366;DHT22;10341;49.894;8.822;2023-07-29T09:21:06;24.50;99.90
20366;DHT22;10341;49.894;8.822;2023-07-29T09:26:26;24.00;99.90
20366;DHT22;10341;49.894;8.822;2023-07-29T09:31:45;24.80;99.90
20366;DHT22;10341;49.894;8.822;2023-07-29T09:37:05;24.90;99.90
20366;DHT22;10341;49.894;8.822;2023-07-29T09:42:24;26.90;99.90
20366;DHT22;10341;49.894;8.822;2023-07-29T09:47:46;26.20;99.90
20366;DHT22;10341;49.894;8.822;2023-07-29T09:53:07;26.10;99.90
20366;DHT22;10341;49.894;8.822;2023-07-29T09:58:27;28.30;99.90
20366;DHT22;10341;49.894;8.822;2023-07-29T10:03:47;28.80;99.90
20366;DHT22;10341;49.894;8.822;2023-07-29T10:09:07;29.10;99.90
20366;DHT22;10341;49.894;8.822;2023-07-29T10:14:28;31.70;99.90
20366;DHT22;10341;49.894;8.822;2023-07-29T10:19:49;32.60;98.80
20366;DHT22;10341;49.894;8.822;2023-07-29T10:25:15;32.30;96.80
20366;DHT22;10341;49.894;8.822;2023-07-29T10:30:34;33.50;95.60
20366;DHT22;10341;49.894;8.822;2023-07-29T10:35:54;33.80;94.70
20366;DHT22;10341;49.894;8.822;2023-07-29T10:41:14;34.20;94.90
20366;DHT22;10341;49.894;8.822;2023-07-29T10:46:35;34.50;93.00
20366;DHT22;10341;49.894;8.822;2023-07-29T10:51:54;33.70;93.40
20366;DHT22;10341;49.894;8.822;2023-07-29T10:57:14;34.10;92.10
20366;DHT22;10341;49.894;8.822;2023-07-29T11:02:35;33.60;92.90
20366;DHT22;10341;49.894;8.822;2023-07-29T11:07:55;34.20;91.70
20366;DHT22;10341;49.894;8.822;2023-07-29T11:13:15;33.50;94.30
20366;DHT22;10341;49.894;8.822;2023-07-29T11:18:35;32.60;93.70
20366;DHT22;10341;49.894;8.822;2023-07-29T11:23:55;33.30;93.80
20366;DHT22;10341;49.894;8.822;2023-07-29T11:29:16;33.10;93.60
20366;DHT22;10341;49.894;8.822;2023-07-29T11:34:35;32.50;95.10
20366;DHT22;10341;49.894;8.822;2023-07-29T11:39:55;31.40;95.70
20366;DHT22;10341;49.894;8.822;2023-07-29T11:45:15;32.10;96.30
20366;DHT22;10341;49.894;8.822;2023-07-29T11:50:35;32.20;94.10
20366;DHT22;10341;49.894;8.822;2023-07-29T11:55:54;31.90;95.30
20366;DHT22;10341;49.894;8.822;2023-07-29T12:01:13;29.80;96.10
20366;DHT22;10341;49.894;8.822;2023-07-29T12:06:33;29.70;97.40
20366;DHT22;10341;49.894;8.822;2023-07-29T12:11:52;28.00;99.90
20366;DHT22;10341;49.894;8.822;2023-07-29T12:17:12;28.70;99.90
20366;DHT22;10341;49.894;8.822;2023-07-29T12:22:31;30.90;98.00
20366;DHT22;10341;49.894;8.822;2023-07-29T12:27:51;30.10;96.60
20366;DHT22;10341;49.894;8.822;2023-07-29T12:33:11;29.80;97.90
20366;DHT22;10341;49.894;8.822;2023-07-29T12:38:30;31.60;93.60
20366;DHT22;10341;49.894;8.822;2023-07-29T12:43:50;32.00;91.10
20366;DHT22;10341;49.894;8.822;2023-07-29T12:49:09;31.60;91.00
20366;DHT22;10341;49.894;8.822;2023-07-29T12:54:29;31.90;90.30
20366;DHT22;10341;49.894;8.822;2023-07-29T12:59:48;31.90;87.70
20366;DHT22;10341;49.894;8.822;2023-07-29T13:05:10;31.50;90.80
20366;DHT22;10341;49.894;8.822;2023-07-29T13:10:32;30.80;88.20
20366;DHT22;10341;49.894;8.822;2023-07-29T13:15:51;30.60;90.20
20366;DHT22;10341;49.894;8.822;2023-07-29T13:21:12;30.50;88.00
20366;DHT22;10341;49.894;8.822;2023-07-29T13:26:31;30.90;88.90
20366;DHT22;10341;49.894;8.822;2023-07-29T13:31:50;31.80;86.20
20366;DHT22;10341;49.894;8.822;2023-07-29T13:37:09;31.60;84.40
20366;DHT22;10341;49.894;8.822;2023-07-29T13:42:28;31.60;82.50
20366;DHT22;10341;49.894;8.822;2023-07-29T13:47:49;31.70;81.60
20366;DHT22;10341;49.894;8.822;2023-07-29T13:53:09;32.40;79.50
20366;DHT22;10341;49.894;8.822;2023-07-29T13:58:29;32.80;77.00
20366;DHT22;10341;49.894;8.822;2023-07-29T14:03:49;32.20;76.50
20366;DHT22;10341;49.894;8.822;2023-07-29T14:09:08;31.90;76.40
20366;DHT22;10341;49.894;8.822;2023-07-29T14:14:28;31.50;79.80
20366;DHT22;10341;49.894;8.822;2023-07-29T14:19:47;31.50;80.10
20366;DHT22;10341;49.894;8.822;2023-07-29T14:25:07;31.70;78.60
20366;DHT22;10341;49.894;8.822;2023-07-29T14:30:27;31.80;79.20
20366;DHT22;10341;49.894;8.822;2023-07-29T14:35:46;32.20;77.60
20366;DHT22;10341;49.894;8.822;2023-07-29T14:41:05;31.70;78.80
20366;DHT22;10341;49.894;8.822;2023-07-29T14:46:25;31.90;81.80
20366;DHT22;10341;49.894;8.822;2023-07-29T14:51:44;32.10;82.00
20366;DHT22;10341;49.894;8.822;2023-07-29T14:57:05;31.90;81.50
20366;DHT22;10341;49.894;8.822;2023-07-29T15:02:25;31.60;82.20
20366;DHT22;10341;49.894;8.822;2023-07-29T15:07:44;31.70;81.30
20366;DHT22;10341;49.894;8.822;2023-07-29T15:13:04;31.30;82.50
20366;DHT22;10341;49.894;8.822;2023-07-29T15:18:24;29.70;85.80
20366;DHT22;10341;49.894;8.822;2023-07-29T15:23:43;29.10;88.70
20366;DHT22;10341;49.894;8.822;2023-07-29T15:29:03;30.00;87.40
20366;DHT22;10341;49.894;8.822;2023-07-29T15:34:22;30.80;85.60
20366;DHT22;10341;49.894;8.822;2023-07-29T15:39:44;30.90;85.00
20366;DHT22;10341;49.894;8.822;2023-07-29T15:45:03;31.30;86.60
20366;DHT22;10341;49.894;8.822;2023-07-29T15:50:22;31.70;83.50
20366;DHT22;10341;49.894;8.822;2023-07-29T15:55:41;30.50;85.90
20366;DHT22;10341;49.894;8.822;2023-07-29T16:01:01;28.80;89.10
20366;DHT22;10341;49.894;8.822;2023-07-29T16:06:24;27.80;91.40
20366;DHT22;10341;49.894;8.822;2023-07-29T16:11:43;27.10;92.10
20366;DHT22;10341;49.894;8.822;2023-07-29T16:17:03;28.20;91.20
20366;DHT22;10341;49.894;8.822;2023-07-29T16:22:23;28.70;90.90
20366;DHT22;10341;49.894;8.822;2023-07-29T16:27:42;28.40;91.00
20366;DHT22;10341;49.894;8.822;2023-07-29T16:33:02;28.00;91.90
20366;DHT22;10341;49.894;8.822;2023-07-29T16:38:21;27.30;93.10
20366;DHT22;10341;49.894;8.822;2023-07-29T16:43:40;27.00;94.60
20366;DHT22;10341;49.894;8.822;2023-07-29T16:48:59;28.00;93.50
20366;DHT22;10341;49.894;8.822;2023-07-29T16:54:20;28.80;91.80
20366;DHT22;10341;49.894;8.822;2023-07-29T16:59:40;29.10;89.90
20366;DHT22;10341;49.894;8.822;2023-07-29T17:04:59;29.10;87.80
20366;DHT22;10341;49.894;8.822;2023-07-29T17:10:19;29.50;89.20
20366;DHT22;10341;49.894;8.822;2023-07-29T17:15:39;29.30;90.20
20366;DHT22;10341;49.894;8.822;2023-07-29T17:20:59;29.30;88.50
20366;DHT22;10341;49.894;8.822;2023-07-29T17:26:19;28.70;88.60
20366;DHT22;10341;49.894;8.822;2023-07-29T17:31:38;28.40;89.30
20366;DHT22;10341;49.894;8.822;2023-07-29T17:36:58;28.00;90.60
20366;DHT22;10341;49.894;8.822;2023-07-29T17:42:17;27.30;91.20
20366;DHT22;10341;49.894;8.822;2023-07-29T17:47:37;26.80;91.60
20366;DHT22;10341;49.894;8.822;2023-07-29T17:52:56;26.50;92.40
20366;DHT22;10341;49.894;8.822;2023-07-29T17:58:17;26.20;93.80
20366;DHT22;10341;49.894;8.822;2023-07-29T18:03:36;25.90;94.60
20366;DHT22;10341;49.894;8.822;2023-07-29T18:08:55;25.80;95.20
20366;DHT22;10341;49.894;8.822;2023-07-29T18:14:15;25.70;95.30
20366;DHT22;10341;49.894;8.822;2023-07-29T18:19:34;25.50;96.20
20366;DHT22;10341;49.894;8.822;2023-07-29T18:24:59;25.30;96.80
20366;DHT22;10341;49.894;8.822;2023-07-29T18:30:19;25.10;98.30
20366;DHT22;10341;49.894;8.822;2023-07-29T18:35:42;24.90;98.30
20366;DHT22;10341;49.894;8.822;2023-07-29T18:41:01;24.80;99.40
20366;DHT22;10341;49.894;8.822;2023-07-29T18:46:21;24.60;99.90
20366;DHT22;10341;49.894;8.822;2023-07-29T18:51:40;24.40;99.90
20366;DHT22;10341;49.894;8.822;2023-07-29T18:57:01;24.30;99.90
20366;DHT22;10341;49.894;8.822;2023-07-29T19:02:20;24.10;99.90
20366;DHT22;10341;49.894;8.822;2023-07-29T19:07:40;24.00;99.90
20366;DHT22;10341;49.894;8.822;2023-07-29T19:12:59;23.90;99.90
20366;DHT22;10341;49.894;8.822;2023-07-29T19:18:18;23.80;99.90
20366;DHT22;10341;49.894;8.822;2023-07-29T19:23:38;23.70;99.90
20366;DHT22;10341;49.894;8.822;2023-07-29T19:28:57;23.60;99.90
20366;DHT22;10341;49.894;8.822;2023-07-29T19:34:17;23.50;99.90
20366;DHT22;10341;49.894;8.822;2023-07-29T19:39:39;23.40;99.90
20366;DHT22;10341;49.894;8.822;2023-07-29T19:44:59;23.30;99.90
20366;DHT22;10341;49.894;8.822;2023-07-29T19:50:18;23.10;99.90
20366;DHT22;10341;49.894;8.822;2023-07-29T19:55:36;22.90;99.90
20366;DHT22;10341;49.894;8.822;2023-07-29T20:00:56;22.80;99.90
20366;DHT22;10341;49.894;8.822;2023-07-29T20:06:16;22.70;99.90
20366;DHT22;10341;49.894;8.822;2023-07-29T20:11:35;22.60;99.90
20366;DHT22;10341;49.894;8.822;2023-07-29T20:16:55;22.50;99.90
20366;DHT22;10341;49.894;8.822;2023-07-29T20:22:15;22.40;99.90
20366;DHT22;10341;49.894;8.822;2023-07-29T20:27:35;22.20;99.90
20366;DHT22;10341;49.894;8.822;2023-07-29T20:32:54;22.20;99.90
20366;DHT22;10341;49.894;8.822;2023-07-29T20:38:13;22.20;99.90
20366;DHT22;10341;49.894;8.822;2023-07-29T20:43:33;22.20;99.90
20366;DHT22;10341;49.894;8.822;2023-07-29T20:48:52;22.10;99.90
20366;DHT22;10341;49.894;8.822;2023-07-29T20:54:11;22.10;99.90
20366;DHT22;10341;49.894;8.822;2023-07-29T20:59:31;22.00;99.90
20366;DHT22;10341;49.894;8.822;2023-07-29T21:04:50;21.90;99.90
20366;DHT22;10341;49.894;8.822;2023-07-29T21:10:09;21.80;99.90
20366;DHT22;10341;49.894;8.822;2023-07-29T21:15:28;21.80;99.90
20366;DHT22;10341;49.894;8.822;2023-07-29T21:20:48;21.80;99.90
20366;DHT22;10341;49.894;8.822;2023-07-29T21:26:07;21.80;99.90
20366;DHT22;10341;49.894;8.822;2023-07-29T21:31:26;21.70;99.90
20366;DHT22;10341;49.894;8.822;2023-07-29T21:36:46;21.70;99.90
20366;DHT22;10341;49.894;8.822;2023-07-29T21:42:05;21.70;99.90
20366;DHT22;10341;49.894;8.822;2023-07-29T21:47:24;21.60;99.90
20366;DHT22;10341;49.894;8.822;2023-07-29T21:52:43;21.60;99.90
20366;DHT22;10341;49.894;8.822;2023-07-29T21:58:03;21.60;99.90
20366;DHT22;10341;49.894;8.822;2023-07-29T22:03:22;21.50;99.90
20366;DHT22;10341;49.894;8.822;2023-07-29T22:08:42;21.50;99.90
20366;DHT22;10341;49.894;8.822;2023-07-29T22:14:01;21.50;99.90
20366;DHT22;10341;49.894;8.822;2023-07-29T22:19:21;21.50;99.90
20366;DHT22;10341;49.894;8.822;2023-07-29T22:24:40;21.50;99.90
20366;DHT22;10341;49.894;8.822;2023-07-29T22:29:59;21.40;99.90
20366;DHT22;10341;49.894;8.822;2023-07-29T22:35:19;21.40;99.90
20366;DHT22;10341;49.894;8.822;2023-07-29T22:40:38;21.30;99.90
20366;DHT22;10341;49.894;8.822;2023-07-29T22:45:59;21.10;99.90
20366;DHT22;10341;49.894;8.822;2023-07-29T22:51:18;21.10;99.90
20366;DHT22;10341;49.894;8.822;2023-07-29T22:56:37;21.00;99.90
20366;DHT22;10341;49.894;8.822;2023-07-29T23:01:57;20.90;99.90
20366;DHT22;10341;49.894;8.822;2023-07-29T23:07:16;20.90;99.90
20366;DHT22;10341;49.894;8.822;2023-07-29T23:12:36;20.90;99.90
20366;DHT22;10341;49.894;8.822;2023-07-29T23:17:55;20.90;99.90
20366;DHT22;10341;49.894;8.822;2023-07-29T23:23:15;20.90;99.90
20366;DHT22;10341;49.894;8.822;2023-07-29T23:28:34;20.80;99.90
20366;DHT22;10341;49.894;8.822;2023-07-29T23:33:53;20.80;99.90
20366;DHT22;10341;49.894;8.822;2023-07-29T23:39:13;20.80;99.90
20366;DHT22;10341;49.894;8.822;2023-07-29T23:44:33;20.70;99.90
20366;DHT22;10341;49.894;8.822;2023-07-29T23:49:52;20.60;99.90
20366;DHT22;10341;49.894;8.822;2023-07-29T23:55:12;20.60;99.90
